This is the latest recevied weather packets stored in our database for station/object K7SPS-10. If no packets are shown the sender has not sent any weather packets the latest 10 day(s).
| Time | Temp. | Humidity | Pressure | Rain* | Wind** | Luminosity | Snow |
|---|---|---|---|---|---|---|---|
| 1777581449 | 20° C | 37% | 1021 hPa | 0 mm | - | 767 W/m² | - |
| 1777581144 | 19.44° C | 38% | 1020.9 hPa | 0 mm | - | 770 W/m² | - |
| 1777580839 | 20° C | 37% | 1020.8 hPa | 0 mm | - | 772 W/m² | - |
| 1777580535 | 19.44° C | 41% | 1021 hPa | 0 mm | - | 777 W/m² | - |
| 1777580230 | 20° C | 38% | 1020.8 hPa | 0 mm | - | 781 W/m² | - |
| 1777579928 | 20° C | 36% | 1021 hPa | 0 mm | - | 784 W/m² | - |
| 1777579622 | 19.44° C | 37% | 1021.1 hPa | 0 mm | - | 785 W/m² | - |
| 1777579321 | 19.44° C | 39% | 1021 hPa | 0 mm | - | 786 W/m² | - |
| 1777579017 | 18.89° C | 39% | 1021.1 hPa | 0 mm | - | 790 W/m² | - |
| 1777578712 | 18.33° C | 42% | 1021.3 hPa | 0 mm | - | 791 W/m² | - |
| 1777578412 | 18.89° C | 41% | 1021.2 hPa | 0 mm | - | 790 W/m² | - |
| 1777578107 | 18.89° C | 42% | 1021.3 hPa | 0 mm | - | 791 W/m² | - |
| 1777577804 | 18.89° C | 41% | 1021.3 hPa | 0 mm | - | 790 W/m² | - |
| 1777577499 | 18.89° C | 41% | 1021.5 hPa | 0 mm | - | 791 W/m² | - |
| 1777577197 | 19.44° C | 40% | 1021.6 hPa | 0 mm | - | 797 W/m² | - |
| 1777576893 | 18.89° C | 39% | 1021.7 hPa | 0 mm | - | 793 W/m² | - |
| 1777576592 | 18.89° C | 37% | 1021.7 hPa | 0 mm | - | 792 W/m² | - |
| 1777576288 | 19.44° C | 37% | 1021.7 hPa | 0 mm | - | 790 W/m² | - |
| 1777575985 | 18.89° C | 39% | 1021.6 hPa | 0 mm | - | 791 W/m² | - |
| 1777575681 | 18.89° C | 39% | 1021.6 hPa | 0 mm | - | 788 W/m² | - |
| 1777575376 | 18.89° C | 39% | 1022.2 hPa | 0 mm | - | 781 W/m² | - |
| 1777575073 | 18.89° C | 40% | 1021.7 hPa | 0 mm | - | 783 W/m² | - |
| 1777574769 | 17.78° C | 43% | 1022 hPa | 0 mm | - | 777 W/m² | - |
| 1777574467 | 18.33° C | 41% | 1022 hPa | 0 mm | - | 773 W/m² | - |
| 1777574162 | 18.89° C | 42% | 1022.1 hPa | 0 mm | - | 768 W/m² | - |
* Rain latest hour (hover to see other rain measurements)
** Current wind speed in m/s (hover to see current wind gust speed)